createdAt,value
2019-02-19T00:02:12.476Z,36.93
2019-02-19T00:04:39.491Z,37.73
2019-02-19T00:07:06.358Z,38.47
2019-02-19T00:09:33.271Z,39.20
2019-02-19T00:12:00.098Z,39.63
2019-02-19T00:14:27.182Z,39.03
2019-02-19T00:16:54.130Z,38.20
2019-02-19T00:19:21.146Z,37.20
2019-02-19T00:21:48.187Z,36.77
2019-02-19T00:24:14.992Z,36.57
2019-02-19T00:26:41.812Z,35.70
2019-02-19T00:29:08.660Z,35.70
2019-02-19T00:31:35.473Z,35.70
2019-02-19T00:34:02.542Z,36.20
2019-02-19T00:36:29.494Z,37.03
2019-02-19T00:38:56.319Z,35.90
2019-02-19T00:41:23.141Z,35.63
2019-02-19T00:43:49.998Z,34.87
2019-02-19T00:46:16.827Z,34.03
2019-02-19T00:48:43.758Z,35.43
2019-02-19T00:51:10.697Z,34.27
2019-02-19T00:53:37.515Z,34.83
2019-02-19T00:56:04.310Z,35.47
2019-02-19T00:58:31.307Z,35.27
2019-02-19T01:00:58.299Z,33.97
2019-02-19T01:03:25.308Z,35.67
2019-02-19T01:05:52.406Z,35.23
2019-02-19T01:08:19.309Z,34.70
2019-02-19T01:10:46.141Z,33.47
2019-02-19T01:13:13.183Z,36.17
2019-02-19T01:15:40.003Z,35.40
2019-02-19T01:18:06.920Z,33.13
2019-02-19T01:20:33.905Z,33.33
2019-02-19T01:23:00.830Z,31.20
2019-02-19T01:25:27.618Z,32.37
2019-02-19T01:27:54.707Z,33.53
2019-02-19T01:30:21.705Z,34.63
2019-02-19T01:32:48.505Z,35.00
2019-02-19T01:35:15.364Z,35.83
2019-02-19T01:37:42.228Z,33.60
2019-02-19T01:40:09.240Z,35.17
2019-02-19T01:42:36.065Z,35.10
2019-02-19T01:45:03.311Z,35.20
2019-02-19T01:47:30.147Z,35.70
2019-02-19T01:49:56.977Z,36.07
2019-02-19T01:52:23.903Z,35.07
2019-02-19T01:54:50.711Z,37.67
2019-02-19T01:57:17.661Z,36.43
2019-02-19T01:59:44.613Z,36.40
2019-02-19T02:02:11.425Z,35.80
2019-02-19T02:04:38.411Z,37.33
2019-02-19T02:07:05.223Z,36.57
2019-02-19T02:09:32.039Z,37.87
2019-02-19T02:11:58.995Z,37.00
2019-02-19T02:14:25.808Z,36.30
2019-02-19T02:16:52.597Z,35.33
2019-02-19T02:19:19.455Z,36.07
2019-02-19T02:21:46.475Z,36.30
2019-02-19T02:24:13.291Z,36.20
2019-02-19T02:26:40.131Z,36.00
2019-02-19T02:29:06.930Z,35.70
2019-02-19T02:31:33.738Z,36.73
2019-02-19T02:34:00.714Z,34.70
2019-02-19T02:36:27.539Z,35.90
2019-02-19T02:38:54.426Z,37.77
2019-02-19T02:41:21.415Z,36.83
2019-02-19T02:43:48.271Z,37.53
2019-02-19T02:46:15.219Z,36.20
2019-02-19T02:48:42.091Z,36.67
2019-02-19T02:51:08.986Z,36.40
2019-02-19T02:53:35.786Z,37.73
2019-02-19T02:56:02.723Z,36.50
2019-02-19T02:58:29.658Z,35.47
2019-02-19T03:00:56.623Z,38.70
2019-02-19T03:03:23.562Z,38.20
2019-02-19T03:06:03.501Z,37.07
2019-02-19T03:08:30.437Z,38.40
2019-02-19T03:10:57.236Z,37.57
2019-02-19T03:13:24.059Z,38.80
2019-02-19T03:15:50.886Z,37.77
2019-02-19T03:18:17.686Z,37.83
2019-02-19T03:20:44.476Z,38.93
2019-02-19T03:23:11.471Z,36.63
2019-02-19T03:25:38.282Z,37.00
2019-02-19T03:28:05.093Z,38.20
2019-02-19T03:30:31.922Z,38.43
2019-02-19T03:32:58.739Z,38.80
2019-02-19T03:35:25.641Z,37.20
2019-02-19T03:37:52.522Z,37.53
2019-02-19T03:40:19.439Z,38.70
2019-02-19T03:42:46.318Z,38.13
2019-02-19T03:45:13.280Z,40.23
2019-02-19T03:47:41.543Z,40.50
2019-02-19T03:50:08.502Z,39.67
2019-02-19T03:52:35.599Z,38.80
2019-02-19T03:55:02.627Z,35.57
2019-02-19T03:57:29.651Z,36.50
2019-02-19T03:59:56.608Z,34.63
2019-02-19T04:02:23.540Z,36.00
2019-02-19T04:04:50.583Z,35.03
2019-02-19T04:07:17.515Z,36.10
2019-02-19T04:09:44.328Z,33.50
2019-02-19T04:12:11.231Z,34.87
2019-02-19T04:14:38.173Z,33.10
2019-02-19T04:17:05.073Z,35.87
2019-02-19T04:19:31.890Z,34.23
2019-02-19T04:21:58.742Z,36.03
2019-02-19T04:24:25.685Z,34.90
2019-02-19T04:26:52.722Z,34.67
2019-02-19T04:29:19.662Z,33.10
2019-02-19T04:31:46.585Z,33.57
2019-02-19T04:34:13.423Z,31.93
2019-02-19T04:36:40.374Z,34.90
2019-02-19T04:39:07.286Z,32.53
2019-02-19T04:41:34.119Z,34.20
2019-02-19T04:44:00.990Z,33.93
2019-02-19T04:46:31.427Z,32.63
2019-02-19T04:48:56.598Z,35.53
2019-02-19T04:51:23.547Z,33.70
2019-02-19T04:53:50.357Z,33.83
2019-02-19T04:56:17.278Z,33.53
2019-02-19T04:58:44.134Z,33.00
2019-02-19T05:01:11.034Z,34.10
2019-02-19T05:03:37.839Z,33.10
2019-02-19T05:06:04.778Z,34.03
2019-02-19T05:08:31.571Z,34.00
2019-02-19T05:10:58.480Z,34.03
2019-02-19T05:13:25.359Z,33.93
2019-02-19T05:15:52.258Z,34.47
2019-02-19T05:18:19.178Z,33.83
2019-02-19T05:20:46.024Z,34.53
2019-02-19T05:23:12.935Z,33.90
2019-02-19T05:25:39.838Z,33.97
2019-02-19T05:28:06.666Z,34.70
2019-02-19T05:30:33.470Z,36.43
2019-02-19T05:33:00.281Z,34.87
2019-02-19T05:35:27.146Z,36.50
2019-02-19T05:37:54.057Z,35.83
2019-02-19T05:40:20.977Z,37.33
2019-02-19T05:42:47.815Z,37.47
2019-02-19T05:45:14.617Z,37.57
2019-02-19T05:47:41.571Z,38.93
2019-02-19T05:50:08.630Z,41.03
2019-02-19T05:52:35.564Z,42.67
2019-02-19T05:55:03.140Z,41.93
2019-02-19T05:57:30.149Z,41.10
2019-02-19T05:59:57.049Z,42.07
2019-02-19T06:02:24.054Z,43.93
2019-02-19T06:04:50.913Z,43.93
2019-02-19T06:07:17.855Z,45.03
2019-02-19T06:09:44.848Z,42.73
2019-02-19T06:12:11.697Z,45.27
2019-02-19T06:14:38.543Z,46.53
2019-02-19T06:17:05.437Z,47.90
2019-02-19T06:19:32.261Z,46.90
2019-02-19T06:21:59.053Z,48.20
2019-02-19T06:24:25.996Z,46.90
2019-02-19T06:26:52.910Z,49.77
2019-02-19T06:29:19.739Z,51.07
2019-02-19T06:31:46.747Z,51.70
2019-02-19T06:34:14.319Z,52.33
2019-02-19T06:36:41.229Z,52.93
2019-02-19T06:39:08.260Z,54.97
2019-02-19T06:41:35.190Z,58.33
2019-02-19T06:44:02.089Z,58.60
2019-02-19T06:46:28.930Z,56.23
2019-02-19T06:48:55.890Z,62.43
2019-02-19T06:51:22.827Z,64.90
2019-02-19T06:53:49.646Z,64.60
2019-02-19T06:56:16.545Z,69.73
2019-02-19T06:58:43.490Z,72.60
2019-02-19T07:01:10.320Z,72.67
2019-02-19T07:03:47.561Z,74.47
2019-02-19T07:06:14.366Z,77.30
2019-02-19T07:08:41.283Z,79.80
2019-02-19T07:11:08.142Z,80.50
2019-02-19T07:13:35.345Z,79.70
2019-02-19T07:16:03.231Z,78.93
2019-02-19T07:18:30.418Z,82.67
2019-02-19T07:20:57.398Z,78.27
2019-02-19T07:23:24.427Z,81.60
2019-02-19T07:25:51.433Z,80.07
2019-02-19T07:28:18.478Z,79.70
2019-02-19T07:30:45.496Z,82.80
2019-02-19T07:33:12.468Z,80.17
2019-02-19T07:35:39.266Z,84.93
2019-02-19T07:38:06.179Z,87.37
2019-02-19T07:40:33.041Z,90.10
2019-02-19T07:42:59.962Z,85.90
2019-02-19T07:45:26.882Z,90.57
2019-02-19T07:47:53.947Z,86.27
2019-02-19T07:50:20.760Z,84.80
2019-02-19T07:52:47.578Z,80.77
2019-02-19T07:55:14.507Z,82.00
2019-02-19T07:57:42.956Z,81.80
2019-02-19T08:00:10.242Z,84.07
2019-02-19T08:02:37.356Z,87.17
2019-02-19T08:05:04.801Z,81.93
2019-02-19T08:07:31.619Z,77.17
2019-02-19T08:09:58.587Z,68.83
2019-02-19T08:12:26.281Z,69.00
2019-02-19T08:14:53.355Z,67.80
2019-02-19T08:17:20.248Z,70.47
2019-02-19T08:19:48.783Z,75.00
2019-02-19T08:22:15.919Z,81.40
2019-02-19T08:24:42.772Z,83.23
2019-02-19T08:27:09.584Z,81.20
2019-02-19T08:29:36.518Z,71.60
2019-02-19T08:32:03.686Z,70.70
2019-02-19T08:34:30.504Z,65.30
2019-02-19T08:36:57.359Z,57.37
2019-02-19T08:39:24.292Z,59.40
2019-02-19T08:41:51.317Z,55.53
2019-02-19T08:44:20.253Z,54.17
2019-02-19T08:46:47.111Z,52.57
2019-02-19T08:49:14.088Z,49.90
2019-02-19T08:51:41.104Z,48.77
2019-02-19T08:54:08.087Z,44.97
2019-02-19T08:56:35.042Z,42.77
2019-02-19T08:59:02.170Z,39.47
2019-02-19T09:01:29.038Z,36.50
2019-02-19T09:03:55.964Z,37.63
2019-02-19T09:06:23.003Z,34.60
2019-02-19T09:08:49.921Z,29.23
2019-02-19T09:11:16.786Z,28.70
2019-02-19T09:13:43.689Z,26.33
2019-02-19T09:16:10.655Z,24.53
2019-02-19T09:18:37.590Z,22.90
2019-02-19T09:21:04.821Z,23.20
2019-02-19T09:23:31.682Z,23.17
2019-02-19T09:25:58.525Z,22.17
2019-02-19T09:28:26.658Z,21.67
2019-02-19T09:30:53.552Z,21.90
2019-02-19T09:33:20.475Z,21.37
2019-02-19T09:35:47.526Z,22.60
2019-02-19T09:38:14.625Z,22.30
2019-02-19T09:40:41.586Z,21.67
2019-02-19T09:43:08.504Z,21.43
2019-02-19T09:45:35.517Z,21.43
2019-02-19T09:48:02.430Z,20.33
2019-02-19T09:50:29.372Z,20.80
2019-02-19T09:53:00.105Z,22.97
2019-02-19T09:55:25.282Z,19.90
2019-02-19T09:57:52.346Z,20.93
2019-02-19T10:00:19.479Z,19.40
2019-02-19T10:02:46.597Z,21.40
2019-02-19T10:05:13.528Z,20.30
2019-02-19T10:07:40.466Z,20.10
2019-02-19T10:10:09.606Z,20.40
2019-02-19T10:12:36.526Z,19.90
2019-02-19T10:15:04.227Z,19.40
2019-02-19T10:17:31.079Z,17.83
2019-02-19T10:19:57.942Z,19.00
2019-02-19T10:22:26.837Z,19.47
2019-02-19T10:24:53.646Z,18.23
2019-02-19T10:27:20.674Z,18.80
2019-02-19T10:29:47.919Z,17.17
2019-02-19T10:32:14.762Z,17.43
2019-02-19T10:34:41.682Z,17.37
2019-02-19T10:37:08.771Z,15.93
2019-02-19T10:39:35.778Z,17.03
2019-02-19T10:42:02.924Z,17.13
2019-02-19T10:44:30.541Z,16.97
2019-02-19T10:46:57.479Z,15.53
2019-02-19T10:49:24.308Z,15.47
2019-02-19T10:51:51.317Z,15.83
2019-02-19T10:54:18.141Z,16.30
2019-02-19T10:56:45.083Z,15.43
2019-02-19T10:59:11.954Z,15.07
2019-02-19T11:01:38.994Z,15.37
2019-02-19T11:04:05.904Z,15.90
2019-02-19T11:06:32.935Z,16.63
2019-02-19T11:09:00.158Z,15.07
2019-02-19T11:11:27.018Z,15.97
2019-02-19T11:13:53.886Z,16.73
2019-02-19T11:16:20.705Z,15.67
2019-02-19T11:18:47.602Z,14.87
2019-02-19T11:21:19.603Z,16.07
2019-02-19T11:23:43.349Z,15.73
2019-02-19T11:26:10.258Z,15.17
2019-02-19T11:28:37.223Z,17.27
2019-02-19T11:31:04.045Z,16.00
2019-02-19T11:33:30.860Z,16.13
2019-02-19T11:35:57.715Z,14.33
2019-02-19T11:38:24.640Z,14.50
2019-02-19T11:40:51.481Z,14.93
2019-02-19T11:43:18.338Z,16.13
2019-02-19T11:45:45.289Z,14.87
2019-02-19T11:48:12.143Z,14.67
2019-02-19T11:50:38.992Z,15.03
2019-02-19T11:53:05.929Z,13.60
2019-02-19T11:55:33.033Z,15.07
2019-02-19T11:57:59.987Z,14.73
2019-02-19T12:00:35.718Z,14.27
2019-02-19T12:03:02.766Z,14.53
2019-02-19T12:05:29.704Z,13.87
2019-02-19T12:07:56.498Z,14.50
2019-02-19T12:10:23.366Z,14.50
2019-02-19T12:12:50.398Z,14.43
2019-02-19T12:15:19.145Z,13.57
2019-02-19T12:17:46.000Z,13.23
2019-02-19T12:20:13.018Z,12.90
2019-02-19T12:22:40.038Z,13.47
2019-02-19T12:25:07.138Z,14.07
2019-02-19T12:27:34.042Z,14.37
2019-02-19T12:30:00.875Z,13.63
2019-02-19T12:32:28.932Z,12.73
2019-02-19T12:34:58.819Z,12.60
2019-02-19T12:37:25.978Z,12.27
2019-02-19T12:39:52.831Z,13.60
2019-02-19T12:42:19.674Z,12.30
2019-02-19T12:44:46.498Z,13.23
2019-02-19T12:47:13.458Z,12.60
2019-02-19T12:49:40.503Z,12.40
2019-02-19T12:52:07.421Z,12.73
2019-02-19T12:54:34.473Z,12.37
2019-02-19T12:57:01.318Z,12.50
2019-02-19T12:59:28.358Z,12.13
2019-02-19T13:01:55.248Z,12.60
2019-02-19T13:04:22.195Z,12.83
2019-02-19T13:06:49.035Z,12.30
2019-02-19T13:09:15.982Z,11.73
2019-02-19T13:11:42.909Z,11.47
2019-02-19T13:14:09.838Z,12.43
2019-02-19T13:16:36.819Z,11.43
2019-02-19T13:19:04.242Z,11.87
2019-02-19T13:21:31.290Z,10.50
2019-02-19T13:23:58.258Z,10.57
2019-02-19T13:26:25.120Z,9.23
2019-02-19T13:28:52.060Z,9.20
2019-02-19T13:31:19.182Z,8.93
2019-02-19T13:33:45.994Z,8.80
2019-02-19T13:36:12.815Z,7.40
2019-02-19T13:38:39.814Z,7.70
2019-02-19T13:41:06.721Z,7.60
2019-02-19T13:43:33.541Z,7.13
2019-02-19T13:46:00.650Z,6.63
2019-02-19T13:48:27.498Z,6.07
2019-02-19T13:50:54.341Z,6.03
2019-02-19T13:53:30.396Z,5.67
2019-02-19T13:55:58.407Z,6.27
2019-02-19T13:58:25.383Z,5.67
2019-02-19T14:00:52.456Z,6.63
2019-02-19T14:03:19.260Z,6.30
2019-02-19T14:05:46.206Z,5.87
2019-02-19T14:08:14.784Z,5.87
2019-02-19T14:10:42.082Z,5.67
2019-02-19T14:13:09.017Z,5.87
2019-02-19T14:16:04.715Z,5.90
2019-02-19T14:18:47.217Z,5.03
2019-02-19T14:21:32.367Z,4.70
2019-02-19T14:24:28.523Z,4.93
2019-02-19T14:27:27.371Z,4.87
2019-02-19T14:30:13.943Z,4.43
2019-02-19T14:33:02.467Z,4.53
2019-02-19T14:35:47.083Z,4.30
2019-02-19T14:38:27.076Z,4.67
2019-02-19T14:41:12.674Z,4.67
2019-02-19T14:44:05.086Z,4.67
2019-02-19T14:46:56.549Z,4.60
2019-02-19T14:49:47.681Z,5.20
2019-02-19T14:52:28.105Z,4.73
2019-02-19T14:55:12.401Z,3.90
2019-02-19T14:57:52.312Z,4.70
2019-02-19T15:00:37.864Z,4.73
2019-02-19T15:03:19.782Z,5.77
2019-02-19T15:06:14.900Z,5.40
2019-02-19T15:09:00.128Z,4.83
2019-02-19T15:11:38.491Z,4.03
2019-02-19T15:14:21.060Z,3.47
2019-02-19T15:17:10.433Z,3.07
2019-02-19T15:19:59.694Z,3.67
2019-02-19T15:23:04.581Z,3.30
2019-02-19T15:25:54.198Z,3.30
2019-02-19T15:28:36.404Z,2.63
2019-02-19T15:31:21.474Z,3.00
2019-02-19T15:34:02.546Z,2.73
2019-02-19T15:36:54.877Z,2.27
2019-02-19T15:39:41.618Z,2.90
2019-02-19T15:42:26.404Z,2.70
2019-02-19T15:45:18.530Z,2.40
2019-02-19T15:48:03.417Z,3.20
2019-02-19T15:50:48.869Z,2.60
2019-02-19T15:53:25.002Z,2.83
2019-02-19T15:56:17.427Z,2.63
2019-02-19T15:58:51.874Z,2.10
2019-02-19T16:01:53.606Z,2.60
2019-02-19T16:04:28.124Z,2.27
2019-02-19T16:07:02.089Z,2.17
2019-02-19T16:09:46.769Z,3.00
2019-02-19T16:12:22.117Z,2.20
2019-02-19T16:15:00.359Z,1.90
2019-02-19T16:17:45.484Z,1.50
2019-02-19T16:20:37.960Z,2.13
2019-02-19T16:23:13.855Z,2.40
2019-02-19T16:26:09.307Z,1.83
2019-02-19T16:28:54.320Z,2.10
2019-02-19T16:31:39.588Z,2.00
2019-02-19T16:34:13.413Z,2.20
2019-02-19T16:36:58.807Z,1.97
2019-02-19T16:39:44.080Z,1.80
2019-02-19T16:42:27.129Z,2.33
2019-02-19T16:45:19.716Z,2.20
2019-02-19T16:48:18.653Z,2.03
2019-02-19T16:51:20.521Z,1.93
2019-02-19T16:54:06.849Z,2.57
2019-02-19T16:56:53.017Z,1.80
2019-02-19T16:59:24.109Z,2.03
2019-02-19T17:02:00.935Z,2.20
2019-02-19T17:04:35.201Z,1.93
2019-02-19T17:07:10.491Z,2.57
2019-02-19T17:09:54.271Z,2.43
2019-02-19T17:12:30.705Z,2.43
2019-02-19T17:15:07.102Z,2.50
2019-02-19T17:17:42.084Z,2.50
2019-02-19T17:20:29.547Z,2.53
2019-02-19T17:23:22.699Z,2.40
2019-02-19T17:26:09.178Z,1.87
2019-02-19T17:28:44.566Z,2.20
2019-02-19T17:31:23.266Z,3.33
2019-02-19T17:33:58.443Z,2.50
2019-02-19T17:36:50.684Z,2.33
2019-02-19T17:39:44.059Z,2.17
2019-02-19T17:42:19.839Z,2.20
2019-02-19T17:44:52.761Z,2.13
2019-02-19T17:47:45.059Z,1.50
2019-02-19T17:50:27.176Z,2.03
2019-02-19T17:53:04.437Z,2.40
2019-02-19T17:55:51.541Z,2.07
2019-02-19T17:58:31.373Z,1.63
2019-02-19T18:01:26.819Z,2.60
2019-02-19T18:04:11.294Z,2.60
2019-02-19T18:07:09.859Z,2.60
2019-02-19T18:09:50.485Z,2.47
2019-02-19T18:12:35.077Z,2.77
2019-02-19T18:15:24.574Z,2.23
2019-02-19T18:18:01.764Z,2.27
2019-02-19T18:20:28.670Z,2.20
2019-02-19T18:22:55.554Z,2.20
2019-02-19T18:25:22.465Z,2.20
2019-02-19T18:27:49.334Z,1.97
2019-02-19T18:30:16.243Z,2.03
2019-02-19T18:32:43.114Z,2.00
2019-02-19T18:35:10.018Z,1.93
2019-02-19T18:37:36.874Z,3.03
2019-02-19T18:40:03.987Z,2.20
2019-02-19T18:42:30.955Z,2.20
2019-02-19T18:44:57.785Z,2.13
2019-02-19T18:47:24.714Z,2.43
2019-02-19T18:49:51.665Z,2.17
2019-02-19T18:52:18.582Z,1.57
2019-02-19T18:54:45.447Z,2.47
2019-02-19T18:57:12.265Z,2.27
2019-02-19T18:59:39.285Z,1.97
2019-02-19T19:02:06.246Z,2.50
2019-02-19T19:04:33.228Z,1.93
2019-02-19T19:07:00.291Z,2.40
2019-02-19T19:09:29.426Z,2.30
2019-02-19T19:11:56.376Z,2.20
2019-02-19T19:14:23.192Z,2.10
2019-02-19T19:16:50.258Z,2.40
2019-02-19T19:19:17.092Z,1.93
2019-02-19T19:21:43.983Z,2.70
2019-02-19T19:24:10.886Z,2.90
2019-02-19T19:26:37.882Z,2.73
2019-02-19T19:29:04.940Z,2.50
2019-02-19T19:31:33.890Z,2.77
2019-02-19T19:34:00.748Z,2.20
2019-02-19T19:36:27.790Z,2.83
2019-02-19T19:38:54.735Z,2.30
2019-02-19T19:41:21.559Z,1.60
2019-02-19T19:43:48.358Z,2.07
2019-02-19T19:46:15.251Z,1.80
2019-02-19T19:48:42.167Z,2.00
2019-02-19T19:51:16.995Z,2.60
2019-02-19T19:53:37.884Z,2.50
2019-02-19T19:56:04.935Z,3.37
2019-02-19T19:58:31.855Z,1.93
2019-02-19T20:00:58.808Z,2.20
2019-02-19T20:03:25.666Z,2.00
2019-02-19T20:05:52.485Z,1.90
2019-02-19T20:08:19.431Z,2.47
2019-02-19T20:10:46.588Z,1.93
2019-02-19T20:13:13.416Z,1.43
2019-02-19T20:15:40.474Z,1.90
2019-02-19T20:18:07.323Z,2.00
2019-02-19T20:20:34.267Z,2.33
2019-02-19T20:23:01.376Z,1.80
2019-02-19T20:25:28.383Z,2.30
2019-02-19T20:27:55.316Z,2.00
2019-02-19T20:30:22.266Z,1.80
2019-02-19T20:32:49.105Z,2.03
2019-02-19T20:35:15.924Z,2.07
2019-02-19T20:37:42.753Z,2.13
2019-02-19T20:40:10.099Z,2.00
2019-02-19T20:42:37.022Z,2.00
2019-02-19T20:45:04.435Z,1.90
2019-02-19T20:47:31.345Z,2.90
2019-02-19T20:49:58.197Z,1.90
2019-02-19T20:52:25.092Z,2.47
2019-02-19T20:54:51.922Z,1.90
2019-02-19T20:57:18.963Z,2.53
2019-02-19T20:59:46.026Z,2.23
2019-02-19T21:02:12.950Z,1.37
2019-02-19T21:04:39.891Z,1.57
2019-02-19T21:07:06.863Z,2.03
2019-02-19T21:09:43.143Z,2.00
2019-02-19T21:12:02.670Z,1.60
2019-02-19T21:14:29.664Z,1.70
2019-02-19T21:16:56.691Z,1.57
2019-02-19T21:19:23.584Z,1.57
2019-02-19T21:21:50.681Z,1.97
2019-02-19T21:24:17.515Z,1.90
2019-02-19T21:26:44.329Z,1.70
2019-02-19T21:29:11.178Z,1.83
2019-02-19T21:31:38.017Z,1.73
2019-02-19T21:34:05.055Z,1.60
2019-02-19T21:36:31.920Z,1.53
2019-02-19T21:38:58.977Z,1.80
2019-02-19T21:41:25.805Z,2.13
2019-02-19T21:43:52.791Z,1.77
2019-02-19T21:46:19.710Z,1.70
2019-02-19T21:48:48.229Z,1.40
2019-02-19T21:51:15.635Z,2.70
2019-02-19T21:53:42.566Z,1.87
2019-02-19T21:56:09.373Z,1.73
2019-02-19T21:58:36.242Z,1.63
2019-02-19T22:01:03.281Z,1.73
2019-02-19T22:03:30.206Z,1.70
2019-02-19T22:05:57.078Z,1.87
2019-02-19T22:08:23.986Z,1.53
2019-02-19T22:10:50.913Z,1.80
2019-02-19T22:13:17.820Z,1.83
2019-02-19T22:15:44.737Z,1.63
2019-02-19T22:18:11.551Z,1.53
2019-02-19T22:21:00.988Z,1.80
2019-02-19T22:23:27.938Z,1.47
2019-02-19T22:25:55.070Z,1.80
2019-02-19T22:28:22.933Z,1.90
2019-02-19T22:30:49.939Z,2.50
2019-02-19T22:33:16.762Z,1.70
2019-02-19T22:35:43.719Z,1.50
2019-02-19T22:38:10.538Z,1.37
2019-02-19T22:40:37.785Z,2.17
2019-02-19T22:43:04.833Z,1.33
2019-02-19T22:45:31.649Z,1.90
2019-02-19T22:47:58.469Z,3.13
2019-02-19T22:50:25.541Z,1.90
2019-02-19T22:52:52.465Z,1.50
2019-02-19T22:55:31.012Z,2.33
2019-02-19T22:57:57.839Z,1.60
2019-02-19T23:00:45.487Z,2.20
2019-02-19T23:03:12.621Z,1.67
2019-02-19T23:05:39.726Z,2.27
2019-02-19T23:08:06.710Z,2.33
2019-02-19T23:10:33.523Z,2.33
2019-02-19T23:13:00.468Z,2.10
2019-02-19T23:15:27.319Z,1.83
2019-02-19T23:17:54.421Z,2.50
2019-02-19T23:20:21.255Z,1.83
2019-02-19T23:22:48.230Z,2.00
2019-02-19T23:25:15.071Z,1.83
2019-02-19T23:27:41.900Z,2.07
2019-02-19T23:30:08.863Z,2.10
2019-02-19T23:32:35.798Z,3.33
2019-02-19T23:35:35.818Z,2.37
2019-02-19T23:38:02.961Z,2.10
2019-02-19T23:40:30.266Z,1.73
2019-02-19T23:42:57.351Z,2.13
2019-02-19T23:45:24.481Z,2.53
2019-02-19T23:47:51.302Z,1.90
2019-02-19T23:50:18.548Z,1.50
2019-02-19T23:52:45.621Z,1.80
2019-02-19T23:55:12.546Z,2.30
2019-02-19T23:57:39.405Z,1.30
